createdAt,value
2022-11-12T00:04:53.886Z,2.20
2022-11-12T00:11:16.951Z,2.30
2022-11-12T00:17:40.261Z,2.20
2022-11-12T00:24:02.992Z,2.50
2022-11-12T00:30:26.166Z,2.70
2022-11-12T00:36:49.365Z,2.70
2022-11-12T00:43:12.118Z,2.30
2022-11-12T00:49:34.817Z,2.40
2022-11-12T00:55:57.722Z,2.40
2022-11-12T01:02:20.293Z,2.40
2022-11-12T01:08:42.917Z,2.70
2022-11-12T01:15:06.259Z,2.30
2022-11-12T01:21:29.116Z,2.30
2022-11-12T01:27:51.557Z,2.20
2022-11-12T01:34:14.662Z,2.60
2022-11-12T01:40:37.655Z,2.50
2022-11-12T01:47:00.541Z,2.40
2022-11-12T01:53:26.194Z,2.60
2022-11-12T01:59:49.015Z,2.20
2022-11-12T02:06:11.827Z,2.10
2022-11-12T02:12:34.580Z,1.80
2022-11-12T02:18:57.656Z,2.10
2022-11-12T02:25:20.525Z,2.00
2022-11-12T02:31:43.548Z,2.20
2022-11-12T02:38:06.472Z,2.20
2022-11-12T02:44:29.779Z,2.20
2022-11-12T02:50:46.128Z,2.10
2022-11-12T02:57:08.789Z,2.10
2022-11-12T03:03:31.636Z,1.70
2022-11-12T03:09:54.326Z,2.40
2022-11-12T03:16:17.029Z,2.40
2022-11-12T03:22:39.887Z,2.30
2022-11-12T03:29:02.746Z,2.10
2022-11-12T03:35:25.332Z,2.70
2022-11-12T03:41:48.083Z,2.30
2022-11-12T03:48:10.982Z,1.90
2022-11-12T03:54:33.731Z,2.10
2022-11-12T04:00:56.676Z,2.30
2022-11-12T04:07:17.765Z,2.40
2022-11-12T04:13:49.468Z,2.30
2022-11-12T04:20:10.516Z,2.10
2022-11-12T04:26:45.557Z,2.30
2022-11-12T04:33:08.622Z,2.00
2022-11-12T04:39:31.520Z,2.20
2022-11-12T04:45:54.252Z,2.00
2022-11-12T04:52:26.593Z,2.00
2022-11-12T04:58:49.582Z,2.10
2022-11-12T05:05:12.462Z,1.90
2022-11-12T05:11:35.420Z,1.90
2022-11-12T05:17:58.172Z,2.00
2022-11-12T05:24:40.553Z,2.20
2022-11-12T05:31:03.518Z,1.90
2022-11-12T05:37:26.581Z,2.30
2022-11-12T05:43:49.469Z,2.00
2022-11-12T05:50:12.440Z,2.00
2022-11-12T05:56:35.513Z,1.90
2022-11-12T06:02:58.636Z,1.80
2022-11-12T06:09:21.620Z,1.90
2022-11-12T06:15:39.416Z,2.10
2022-11-12T06:22:02.631Z,1.80
2022-11-12T06:28:26.036Z,1.90
2022-11-12T06:34:49.121Z,2.10
2022-11-12T06:41:12.160Z,1.70
2022-11-12T06:47:34.856Z,2.10
2022-11-12T06:54:00.707Z,2.00
2022-11-12T07:00:23.699Z,2.00
2022-11-12T07:06:46.876Z,2.10
2022-11-12T07:13:09.945Z,1.90
2022-11-12T07:19:25.671Z,1.70
2022-11-12T07:25:48.335Z,1.90
2022-11-12T07:32:11.022Z,1.90
2022-11-12T07:38:33.771Z,2.00
2022-11-12T07:44:56.662Z,2.20
2022-11-12T07:51:19.452Z,2.20
2022-11-12T07:57:42.302Z,2.20
2022-11-12T08:04:04.931Z,2.00
2022-11-12T08:10:27.535Z,2.10
2022-11-12T08:16:50.225Z,2.30
2022-11-12T08:23:12.786Z,2.30
2022-11-12T08:29:35.658Z,2.30
2022-11-12T08:35:58.249Z,2.00
2022-11-12T08:42:21.006Z,2.30
2022-11-12T08:48:42.727Z,1.70
2022-11-12T08:55:05.548Z,2.20
2022-11-12T09:01:28.134Z,2.10
2022-11-12T09:07:51.423Z,2.10
2022-11-12T09:14:14.407Z,2.70
2022-11-12T09:20:37.161Z,2.70
2022-11-12T09:26:59.815Z,2.60
2022-11-12T09:33:22.897Z,3.50
2022-11-12T09:39:45.376Z,5.20
2022-11-12T09:46:27.604Z,4.90
2022-11-12T09:52:51.293Z,4.40
2022-11-12T09:59:14.087Z,5.00
2022-11-12T10:05:58.405Z,4.60
2022-11-12T10:12:26.217Z,4.10
2022-11-12T10:18:49.567Z,4.10
2022-11-12T10:25:12.215Z,3.90
2022-11-12T10:31:35.049Z,3.50
2022-11-12T10:38:03.945Z,3.20
2022-11-12T10:44:29.921Z,3.40
2022-11-12T10:50:58.881Z,3.70
2022-11-12T10:57:21.736Z,3.50
2022-11-12T11:03:56.734Z,4.10
2022-11-12T11:10:19.578Z,3.40
2022-11-12T11:16:42.471Z,3.30
2022-11-12T11:23:22.748Z,3.70
2022-11-12T11:29:51.895Z,3.50
2022-11-12T11:36:39.367Z,3.90
2022-11-12T11:43:14.266Z,3.90
2022-11-12T11:49:40.096Z,3.90
2022-11-12T11:56:03.072Z,3.70
2022-11-12T12:02:29.328Z,3.70
2022-11-12T12:08:58.195Z,3.70
2022-11-12T12:15:21.151Z,3.30
2022-11-12T12:21:50.127Z,3.50
2022-11-12T12:28:27.250Z,3.70
2022-11-12T12:34:56.196Z,3.80
2022-11-12T12:41:18.341Z,3.60
2022-11-12T12:47:44.220Z,3.90
2022-11-12T12:54:09.800Z,4.60
2022-11-12T13:00:33.506Z,4.30
2022-11-12T13:07:10.992Z,3.90
2022-11-12T13:13:43.283Z,4.30
2022-11-12T13:20:08.966Z,3.90
2022-11-12T13:26:31.705Z,4.00
2022-11-12T13:32:51.592Z,3.90
2022-11-12T13:39:14.178Z,4.80
2022-11-12T13:45:36.823Z,4.40
2022-11-12T13:51:52.211Z,4.80
2022-11-12T13:58:15.111Z,4.40
2022-11-12T14:04:46.839Z,4.10
2022-11-12T14:11:17.186Z,4.40
2022-11-12T14:17:49.260Z,4.70
2022-11-12T14:24:18.314Z,4.40
2022-11-12T14:30:56.938Z,4.10
2022-11-12T14:37:20.108Z,4.10
2022-11-12T14:43:43.073Z,3.90
2022-11-12T14:50:21.578Z,4.00
2022-11-12T14:56:45.002Z,4.20
2022-11-12T15:03:10.926Z,4.10
2022-11-12T15:09:36.736Z,4.80
2022-11-12T15:16:05.410Z,4.30
2022-11-12T15:22:37.223Z,3.80
2022-11-12T15:29:12.524Z,4.00
2022-11-12T15:35:41.534Z,4.30
2022-11-12T15:42:04.455Z,4.30
2022-11-12T15:48:27.371Z,5.40
2022-11-12T15:54:50.159Z,4.30
2022-11-12T16:01:16.134Z,4.70
2022-11-12T16:07:38.959Z,5.40
2022-11-12T16:13:57.577Z,4.60
2022-11-12T16:20:13.470Z,5.00
2022-11-12T16:26:36.314Z,4.90
2022-11-12T16:32:58.990Z,4.90
2022-11-12T16:39:21.673Z,5.00
2022-11-12T16:45:44.366Z,5.10
2022-11-12T16:52:07.238Z,6.00
2022-11-12T16:58:29.782Z,5.80
2022-11-12T17:04:52.756Z,5.60
2022-11-12T17:11:15.531Z,5.70
2022-11-12T17:17:38.754Z,5.70
2022-11-12T17:24:01.510Z,5.80
2022-11-12T17:30:24.438Z,5.70
2022-11-12T17:36:47.163Z,6.30
2022-11-12T17:43:10.155Z,6.10
2022-11-12T17:49:24.000Z,6.00
2022-11-12T17:55:46.793Z,6.50
2022-11-12T18:02:09.666Z,6.20
2022-11-12T18:08:32.520Z,6.70
2022-11-12T18:14:55.929Z,6.60
2022-11-12T18:21:18.696Z,6.60
2022-11-12T18:27:41.486Z,6.50
2022-11-12T18:34:04.428Z,6.70
2022-11-12T18:40:27.418Z,6.40
2022-11-12T18:46:56.271Z,6.80
2022-11-12T18:53:19.226Z,6.40
2022-11-12T18:59:35.570Z,7.20
2022-11-12T19:05:58.642Z,6.50
2022-11-12T19:12:21.526Z,6.30
2022-11-12T19:18:44.266Z,7.40
2022-11-12T19:25:06.845Z,7.30
2022-11-12T19:31:29.641Z,7.20
2022-11-12T19:37:52.180Z,7.30
2022-11-12T19:44:15.318Z,7.60
2022-11-12T19:50:37.929Z,7.70
2022-11-12T19:56:43.543Z,7.50
2022-11-12T20:03:06.136Z,7.60
2022-11-12T20:09:29.156Z,7.30
2022-11-12T20:15:51.727Z,7.90
2022-11-12T20:22:14.823Z,8.00
2022-11-12T20:28:37.340Z,8.20
2022-11-12T20:34:59.954Z,7.50
2022-11-12T20:41:22.500Z,7.40
2022-11-12T20:47:45.098Z,8.20
2022-11-12T20:54:08.105Z,8.10
2022-11-12T21:00:31.169Z,7.90
2022-11-12T21:07:05.107Z,7.90
2022-11-12T21:13:28.207Z,8.00
2022-11-12T21:19:50.880Z,8.30
2022-11-12T21:26:16.503Z,8.20
2022-11-12T21:32:37.979Z,7.90
2022-11-12T21:39:00.829Z,7.60
2022-11-12T21:45:23.608Z,7.10
2022-11-12T21:51:38.066Z,8.10
2022-11-12T21:58:00.946Z,8.50
2022-11-12T22:04:23.943Z,7.20
2022-11-12T22:10:46.801Z,7.60
2022-11-12T22:17:09.583Z,7.50
2022-11-12T22:23:32.355Z,7.90
2022-11-12T22:29:55.419Z,7.30
2022-11-12T22:36:18.136Z,7.60
2022-11-12T22:42:40.891Z,7.80
2022-11-12T22:49:03.748Z,7.30
2022-11-12T22:55:26.212Z,7.30
2022-11-12T23:01:49.124Z,7.50
2022-11-12T23:08:12.275Z,7.20
2022-11-12T23:14:35.156Z,7.70
2022-11-12T23:20:57.549Z,7.50
2022-11-12T23:27:20.088Z,7.30
2022-11-12T23:33:43.104Z,7.70
2022-11-12T23:40:05.940Z,6.70
2022-11-12T23:46:28.517Z,7.20
2022-11-12T23:52:51.427Z,7.20
2022-11-12T23:59:14.278Z,7.20
